Time;durP1;ratioP1;P1;durP2;ratioP2;P2;SDS_P1;SDS_P2;PMS_P1;PMS_P2;Temp;Humidity;BMP_temperature;BMP_pressure;BME280_temperature;BME280_humidity;BME280_pressure;Samples;Min_cycle;Max_cycle;Signal;HPM_P1;HPM_P2
2021/06/30 00:01:56;;;;;;;14.70;6.47;;;717.50;1587.20;;;;;;5113977;28;20023;-78
2021/06/30 00:04:22;;;;;;;8.65;6.70;;;717.50;1587.20;;;;;;5113778;27;20096;-74
2021/06/30 00:06:48;;;;;;;13.20;6.55;;;717.70;1587.20;;;;;;5113832;28;20020;-73
2021/06/30 00:09:17;;;;;;;8.15;6.15;;;717.60;1587.20;;;;;;5117128;27;20050;-73
2021/06/30 00:11:44;;;;;;;10.57;6.18;;;717.40;1612.80;;;;;;5122160;27;20090;-73
2021/06/30 00:14:13;;;;;;;10.18;6.90;;;717.40;1612.80;;;;;;5136456;27;20022;-73
2021/06/30 00:16:39;;;;;;;10.57;6.53;;;717.40;1587.20;;;;;;5136016;27;20019;-74
2021/06/30 00:19:07;;;;;;;10.98;6.82;;;717.60;1587.20;;;;;;5117661;27;20027;-74
2021/06/30 00:21:33;;;;;;;14.48;6.75;;;717.50;1587.20;;;;;;5135854;27;20057;-74
2021/06/30 00:23:59;;;;;;;14.27;7.47;;;717.50;1587.20;;;;;;5135778;27;20063;-73
2021/06/30 00:26:25;;;;;;;11.32;7.00;;;717.40;1612.80;;;;;;5135905;27;20045;-75
2021/06/30 00:28:51;;;;;;;12.93;6.03;;;717.40;1612.80;;;;;;5135878;27;20027;-75
2021/06/30 00:31:18;;;;;;;12.25;6.97;;;717.40;1612.80;;;;;;5136104;27;20027;-73
2021/06/30 00:33:44;;;;;;;11.13;6.63;;;717.40;1612.80;;;;;;5135572;27;20047;-73
2021/06/30 00:36:11;;;;;;;10.50;7.68;;;717.40;1612.80;;;;;;5136151;27;20023;-73
2021/06/30 00:38:37;;;;;;;12.25;6.35;;;717.40;1612.80;;;;;;5135363;27;20031;-73
2021/06/30 00:41:04;;;;;;;10.27;7.60;;;717.40;1612.80;;;;;;5135798;27;20422;-75
2021/06/30 00:43:29;;;;;;;10.55;7.55;;;717.30;1612.80;;;;;;5116994;27;20026;-76
2021/06/30 00:45:55;;;;;;;13.27;7.18;;;717.20;1638.40;;;;;;5135399;27;20035;-73
2021/06/30 00:48:21;;;;;;;12.52;7.13;;;717.20;1638.40;;;;;;5135921;27;20477;-75
2021/06/30 00:50:47;;;;;;;13.82;7.10;;;717.40;1612.80;;;;;;5135213;27;20059;-73
2021/06/30 00:53:13;;;;;;;10.55;6.95;;;717.60;1612.80;;;;;;5135578;27;20025;-73
2021/06/30 00:55:39;;;;;;;15.82;7.45;;;717.70;1638.40;;;;;;5134792;27;20047;-73
2021/06/30 00:58:05;;;;;;;10.93;7.50;;;717.40;1638.40;;;;;;5134552;27;20397;-75
2021/06/30 01:00:31;;;;;;;11.38;7.22;;;717.20;1664.00;;;;;;5135038;27;20034;-75
2021/06/30 01:02:57;;;;;;;12.00;7.30;;;717.20;1664.00;;;;;;5135263;27;20032;-75
2021/06/30 01:05:23;;;;;;;8.73;6.45;;;717.20;1664.00;;;;;;5135211;27;20025;-73
2021/06/30 01:07:49;;;;;;;13.48;7.65;;;717.40;1638.40;;;;;;5135130;27;20533;-73
2021/06/30 01:10:15;;;;;;;16.20;7.93;;;717.50;1664.00;;;;;;5135182;27;20022;-73
2021/06/30 01:12:40;;;;;;;16.70;7.82;;;717.20;1715.20;;;;;;5134891;27;20064;-73
2021/06/30 01:15:11;;;;;;;14.65;7.90;;;717.20;1664.00;;;;;;5135334;27;20027;-80
2021/06/30 01:17:38;;;;;;;22.27;8.32;;;717.40;1612.80;;;;;;5134756;27;20127;-74
2021/06/30 01:20:05;;;;;;;21.35;7.85;;;717.60;1612.80;;;;;;5133718;27;20447;-74
2021/06/30 01:22:31;;;;;;;14.10;7.70;;;717.70;1612.80;;;;;;5134571;27;20023;-75
2021/06/30 01:24:57;;;;;;;15.77;8.07;;;717.70;1638.40;;;;;;5134914;27;20027;-75
2021/06/30 01:27:30;;;;;;;13.65;8.25;;;742.60;1664.00;;;;;;5134643;27;20026;-73
2021/06/30 01:29:57;;;;;;;14.95;8.40;;;717.40;1664.00;;;;;;5134671;27;20031;-74
2021/06/30 01:32:24;;;;;;;18.63;8.63;;;717.50;1664.00;;;;;;5134897;27;20468;-74
2021/06/30 01:34:50;;;;;;;18.63;8.50;;;717.40;1664.00;;;;;;5134383;27;20015;-74
2021/06/30 01:37:16;;;;;;;23.80;8.75;;;717.40;1664.00;;;;;;5134805;27;20042;-74
2021/06/30 01:39:42;;;;;;;13.82;8.32;;;717.40;1689.60;;;;;;5134712;27;20361;-73
2021/06/30 01:42:08;;;;;;;17.55;8.65;;;717.40;1689.60;;;;;;5115448;27;20404;-73
2021/06/30 01:44:34;;;;;;;15.93;8.45;;;717.10;1715.20;;;;;;5116068;27;20020;-73
2021/06/30 01:46:59;;;;;;;16.02;8.70;;;717.10;1715.20;;;;;;5134444;27;20014;-74
2021/06/30 01:49:25;;;;;;;17.33;8.35;;;716.90;1715.20;;;;;;5134240;27;20056;-78
2021/06/30 01:51:51;;;;;;;15.52;8.20;;;717.20;1689.60;;;;;;5134231;27;20023;-77
2021/06/30 01:54:19;;;;;;;12.88;8.00;;;716.80;1715.20;;;;;;5133737;27;20067;-73
2021/06/30 01:56:47;;;;;;;16.30;8.55;;;716.90;1715.20;;;;;;5133999;27;20465;-75
2021/06/30 01:59:14;;;;;;;14.18;8.40;;;716.80;1715.20;;;;;;5132301;27;20058;-74
2021/06/30 02:01:42;;;;;;;11.52;8.70;;;716.80;1740.80;;;;;;5126779;27;20469;-74
2021/06/30 02:04:08;;;;;;;17.75;8.57;;;716.80;1715.20;;;;;;5134192;27;20031;-79
2021/06/30 02:06:43;;;;;;;13.65;8.65;;;692.00;1715.20;;;;;;5128666;27;20488;-74
2021/06/30 02:09:13;;;;;;;12.38;9.05;;;691.90;1740.80;;;;;;5124435;27;20481;-74
2021/06/30 02:11:40;;;;;;;16.15;8.65;;;692.00;1715.20;;;;;;5124493;27;20098;-73
2021/06/30 02:14:08;;;;;;;21.20;8.73;;;691.80;1740.80;;;;;;5112162;28;20530;-74
2021/06/30 02:16:34;;;;;;;22.40;8.38;;;691.70;1740.80;;;;;;5126865;27;20015;-79
2021/06/30 02:19:04;;;;;;;16.58;8.77;;;691.70;1766.40;;;;;;5126988;27;20069;-77
2021/06/30 02:21:31;;;;;;;18.33;9.32;;;691.60;1766.40;;;;;;5139775;27;20472;-74
2021/06/30 02:23:57;;;;;;;17.38;9.57;;;691.50;1766.40;;;;;;5128228;27;20031;-74
2021/06/30 02:26:23;;;;;;;17.95;9.20;;;691.50;1766.40;;;;;;5123498;27;20016;-78
2021/06/30 02:28:49;;;;;;;20.38;8.85;;;691.30;1792.00;;;;;;5128067;27;20020;-73
2021/06/30 02:31:16;;;;;;;19.15;9.05;;;691.20;1817.60;;;;;;5123875;27;20008;-73
2021/06/30 02:33:46;;;;;;;15.95;8.80;;;691.30;1792.00;;;;;;5127946;27;20065;-74
2021/06/30 02:36:12;;;;;;;16.70;9.30;;;691.30;1792.00;;;;;;5124605;27;20016;-74
2021/06/30 02:38:38;;;;;;;18.33;8.50;;;691.50;1792.00;;;;;;5114788;27;20035;-73
2021/06/30 02:41:04;;;;;;;14.93;9.13;;;691.50;1792.00;;;;;;5126866;27;20073;-74
2021/06/30 02:43:30;;;;;;;20.20;10.23;;;691.60;1766.40;;;;;;5124189;27;20058;-74
2021/06/30 02:45:56;;;;;;;17.63;8.77;;;691.50;1792.00;;;;;;5128108;27;20100;-73
2021/06/30 02:48:25;;;;;;;26.90;10.32;;;691.50;1792.00;;;;;;5120982;27;20027;-75
2021/06/30 02:50:52;;;;;;;17.25;8.88;;;691.30;1792.00;;;;;;5127904;27;20023;-75
2021/06/30 02:53:17;;;;;;;17.05;9.13;;;691.20;1817.60;;;;;;5124115;27;20111;-73
2021/06/30 02:55:43;;;;;;;16.50;10.07;;;666.30;1843.20;;;;;;5131776;27;20114;-74
2021/06/30 02:58:09;;;;;;;18.77;9.70;;;666.30;1843.20;;;;;;5132956;27;20060;-73
2021/06/30 03:00:35;;;;;;;16.58;9.77;;;666.00;1868.80;;;;;;5114624;27;20028;-74
2021/06/30 03:03:00;;;;;;;18.80;10.23;;;666.00;1894.40;;;;;;5114402;27;20023;-74
2021/06/30 03:05:26;;;;;;;20.65;9.73;;;666.00;1894.40;;;;;;5114611;27;20107;-74
2021/06/30 03:07:52;;;;;;;22.30;10.70;;;666.00;1868.80;;;;;;5132379;27;20064;-74
2021/06/30 03:10:19;;;;;;;17.80;9.32;;;666.10;1894.40;;;;;;5114420;27;20027;-76
2021/06/30 03:12:45;;;;;;;25.33;10.20;;;666.00;1894.40;;;;;;5132357;27;20385;-73
2021/06/30 03:15:13;;;;;;;17.52;9.88;;;640.90;1868.80;;;;;;5133130;27;20510;-73
2021/06/30 03:17:38;;;;;;;21.80;15.25;;;665.90;1920.00;;;;;;5132541;27;20027;-78
2021/06/30 03:20:10;;;;;;;16.42;9.63;;;666.00;1894.40;;;;;;5132836;27;20015;-73
2021/06/30 03:22:38;;;;;;;28.00;10.95;;;665.90;1920.00;;;;;;5127420;27;20483;-73
2021/06/30 03:25:04;;;;;;;24.20;11.02;;;665.70;1920.00;;;;;;5144341;27;20027;-73
2021/06/30 03:27:30;;;;;;;18.92;10.05;;;665.80;1920.00;;;;;;5131410;27;20042;-73
2021/06/30 03:29:56;;;;;;;17.90;9.98;;;666.00;1894.40;;;;;;5113382;28;20477;-78
2021/06/30 03:32:21;;;;;;;19.70;11.15;;;666.20;1894.40;;;;;;5132291;27;20019;-76
2021/06/30 03:34:47;;;;;;;17.95;8.98;;;666.40;1868.80;;;;;;5131290;28;20077;-73
2021/06/30 03:37:13;;;;;;;16.45;10.68;;;666.50;1868.80;;;;;;5132097;27;20579;-74
2021/06/30 03:39:39;;;;;;;17.10;11.07;;;666.50;1868.80;;;;;;5131706;28;20015;-73
2021/06/30 03:42:04;;;;;;;15.60;10.13;;;666.40;1894.40;;;;;;5131639;27;20382;-75
2021/06/30 03:44:30;;;;;;;20.48;10.85;;;666.20;1920.00;;;;;;5135479;27;20023;-78
2021/06/30 03:46:56;;;;;;;15.45;10.45;;;666.40;1894.40;;;;;;5136129;27;20023;-73
2021/06/30 03:49:22;;;;;;;21.48;9.98;;;666.30;1894.40;;;;;;5131879;27;20504;-73
2021/06/30 03:51:48;;;;;;;15.93;10.15;;;666.50;1868.80;;;;;;5128935;27;20111;-74
2021/06/30 03:54:13;;;;;;;21.35;11.63;;;666.40;1868.80;;;;;;5129213;27;20051;-74
2021/06/30 03:56:39;;;;;;;20.90;11.10;;;666.50;1868.80;;;;;;5117797;27;20080;-78
2021/06/30 03:59:05;;;;;;;20.27;10.40;;;666.30;1894.40;;;;;;5117643;27;20031;-73
2021/06/30 04:01:31;;;;;;;17.35;10.82;;;666.30;1894.40;;;;;;5117614;27;20037;-74
2021/06/30 04:04:00;;;;;;;18.80;12.18;;;666.20;1894.40;;;;;;5118055;27;20397;-73
2021/06/30 04:06:26;;;;;;;25.98;11.02;;;666.20;1894.40;;;;;;5117653;27;20106;-74
2021/06/30 04:08:52;;;;;;;17.17;9.60;;;666.20;1894.40;;;;;;5136527;27;20107;-74
2021/06/30 04:11:18;;;;;;;23.38;11.43;;;666.10;1894.40;;;;;;5135996;27;20045;-73
2021/06/30 04:13:44;;;;;;;25.60;10.65;;;666.10;1894.40;;;;;;5117697;27;20019;-73
2021/06/30 04:16:10;;;;;;;21.15;10.82;;;666.30;1894.40;;;;;;5136078;27;20031;-73
2021/06/30 04:18:36;;;;;;;19.92;9.80;;;666.30;1894.40;;;;;;5135780;27;20114;-74
2021/06/30 04:21:02;;;;;;;20.65;10.13;;;666.50;1894.40;;;;;;5136284;27;20097;-78
2021/06/30 04:23:28;;;;;;;20.40;10.68;;;666.50;1894.40;;;;;;5116267;27;20031;-73
2021/06/30 04:25:53;;;;;;;21.38;11.43;;;691.20;1894.40;;;;;;5117525;27;20023;-73
2021/06/30 04:28:19;;;;;;;18.73;12.77;;;691.40;1894.40;;;;;;5135720;27;20408;-73
2021/06/30 04:30:45;;;;;;;25.35;11.82;;;691.30;1894.40;;;;;;5136205;27;20477;-74
2021/06/30 04:33:11;;;;;;;24.92;12.23;;;691.40;1868.80;;;;;;5135730;27;20102;-75
2021/06/30 04:35:37;;;;;;;17.42;11.90;;;691.50;1868.80;;;;;;5135927;27;20019;-74
2021/06/30 04:38:05;;;;;;;23.13;11.38;;;691.50;1843.20;;;;;;5135632;27;20034;-74
2021/06/30 04:40:31;;;;;;;21.90;12.75;;;691.60;1843.20;;;;;;5135755;27;20443;-74
2021/06/30 04:42:57;;;;;;;26.40;11.82;;;691.60;1843.20;;;;;;5136062;27;20099;-74
2021/06/30 04:45:23;;;;;;;25.60;12.07;;;691.60;1868.80;;;;;;5135443;27;20019;-74
2021/06/30 04:47:49;;;;;;;23.08;11.82;;;691.60;1868.80;;;;;;5135590;27;20469;-74
2021/06/30 04:50:15;;;;;;;21.60;11.07;;;691.60;1868.80;;;;;;5116829;27;20027;-74
2021/06/30 04:52:40;;;;;;;18.40;10.75;;;691.60;1868.80;;;;;;5135611;27;20019;-73
2021/06/30 04:55:07;;;;;;;23.13;12.00;;;691.60;1868.80;;;;;;5124647;27;20060;-77
2021/06/30 04:57:35;;;;;;;22.50;11.02;;;691.40;1894.40;;;;;;5131162;27;20499;-77
2021/06/30 05:00:04;;;;;;;18.02;11.60;;;691.20;1945.60;;;;;;5116831;27;20023;-75
2021/06/30 05:02:29;;;;;;;40.42;13.95;;;691.40;1945.60;;;;;;5135161;27;20023;-79
2021/06/30 05:04:55;;;;;;;19.10;12.05;;;691.50;1945.60;;;;;;5116897;27;20030;-74
2021/06/30 05:07:21;;;;;;;25.75;12.00;;;691.30;1920.00;;;;;;5135032;27;20387;-75
2021/06/30 05:09:47;;;;;;;27.95;11.88;;;691.20;1920.00;;;;;;5135175;27;20031;-77
2021/06/30 05:12:13;;;;;;;19.05;11.13;;;691.20;1920.00;;;;;;5135157;27;20019;-75
2021/06/30 05:14:39;;;;;;;34.15;11.95;;;691.20;1920.00;;;;;;5134895;27;20095;-74
2021/06/30 05:17:05;;;;;;;22.80;11.90;;;691.20;1894.40;;;;;;5134859;27;20119;-75
2021/06/30 05:19:31;;;;;;;27.67;11.98;;;666.50;1945.60;;;;;;5134631;27;20035;-79
2021/06/30 05:21:57;;;;;;;22.88;12.60;;;666.50;1945.60;;;;;;5116402;27;20063;-74
2021/06/30 05:24:23;;;;;;;23.58;12.75;;;691.20;1920.00;;;;;;5135341;27;20062;-74
2021/06/30 05:26:50;;;;;;;23.95;11.55;;;691.40;1894.40;;;;;;5134453;27;20461;-74
2021/06/30 05:29:16;;;;;;;21.58;11.82;;;691.60;1894.40;;;;;;5134881;27;20023;-74
2021/06/30 05:31:42;;;;;;;20.95;11.63;;;691.80;1894.40;;;;;;5134517;27;20023;-76
2021/06/30 05:34:08;;;;;;;26.33;12.68;;;691.70;1894.40;;;;;;5134553;27;20042;-79
2021/06/30 05:36:33;;;;;;;20.40;11.43;;;691.60;1920.00;;;;;;5134867;27;20026;-73
2021/06/30 05:38:59;;;;;;;22.77;11.80;;;691.80;1920.00;;;;;;5134477;27;20400;-75
2021/06/30 05:41:25;;;;;;;18.10;12.00;;;691.80;1920.00;;;;;;5116219;27;20080;-77
2021/06/30 05:43:51;;;;;;;26.15;11.38;;;691.90;1894.40;;;;;;5134087;27;20021;-81
2021/06/30 05:46:18;;;;;;;29.73;11.88;;;691.90;1894.40;;;;;;5116296;27;20116;-76
2021/06/30 05:48:44;;;;;;;26.55;12.27;;;716.80;1868.80;;;;;;5133074;27;20114;-74
2021/06/30 11:08:53;;;;;;;15.32;5.38;;;1024.00;716.80;;;;;;5255549;23;20146;-85
2021/06/30 11:11:40;;;;;;;23.05;5.05;;;1024.50;691.20;;;;;;4971149;28;20462;-84
2021/06/30 11:14:09;;;;;;;14.65;5.25;;;1024.40;691.20;;;;;;4995594;28;20112;-84
2021/06/30 11:19:18;;;;;;;11.43;4.97;;;1024.70;665.60;;;;;;4984841;28;20035;-85
2021/06/30 11:22:05;;;;;;;15.05;5.47;;;1024.60;665.60;;;;;;4984207;28;20094;-81
2021/06/30 11:56:02;;;;;;;17.75;5.28;;;1049.90;665.60;;;;;;5289416;23;20052;-85
2021/06/30 11:58:53;;;;;;;14.55;6.07;;;1050.50;614.40;;;;;;5013128;28;20129;-85
2021/06/30 12:01:27;;;;;;;14.70;6.50;;;1050.40;640.00;;;;;;5007496;28;20491;-83
2021/06/30 12:04:11;;;;;;;13.77;5.20;;;1050.30;665.60;;;;;;5014696;28;20034;-85
2021/06/30 12:06:39;;;;;;;15.73;5.07;;;1050.10;640.00;;;;;;4996582;28;20038;-84
2021/06/30 12:09:17;;;;;;;13.70;4.55;;;1049.90;665.60;;;;;;4993138;28;20048;-81
2021/06/30 12:11:46;;;;;;;10.60;4.60;;;1050.30;640.00;;;;;;4995090;28;20533;-84
2021/06/30 12:14:18;;;;;;;15.70;4.93;;;1049.70;614.40;;;;;;4994021;28;20040;-86
2021/06/30 12:16:56;;;;;;;18.38;4.97;;;1049.70;640.00;;;;;;4986039;28;20045;-80
2021/06/30 12:19:52;;;;;;;16.50;4.57;;;1050.50;640.00;;;;;;4985544;28;20044;-85
2021/06/30 12:22:22;;;;;;;11.35;4.50;;;1050.40;640.00;;;;;;4982904;28;20034;-84
2021/06/30 12:25:07;;;;;;;15.60;5.20;;;1075.30;640.00;;;;;;4993153;28;20082;-86
2021/06/30 12:27:42;;;;;;;12.60;4.15;;;1050.10;640.00;;;;;;4986531;28;20030;-84
2021/06/30 12:30:20;;;;;;;13.95;4.30;;;1049.90;665.60;;;;;;4990031;28;20030;-85
2021/06/30 12:32:49;;;;;;;14.25;5.28;;;1050.50;640.00;;;;;;4982477;28;20080;-79
2021/06/30 12:35:21;;;;;;;15.13;4.55;;;1075.40;614.40;;;;;;4995383;28;20123;-83
2021/06/30 12:38:02;;;;;;;13.23;4.70;;;1050.00;614.40;;;;;;5001719;28;20036;-84
2021/06/30 12:40:28;;;;;;;17.52;4.95;;;1075.20;588.80;;;;;;4984538;28;20045;-85
2021/06/30 12:43:03;;;;;;;18.25;5.50;;;1050.40;588.80;;;;;;5003504;28;20026;-84
2021/06/30 12:45:41;;;;;;;18.27;5.15;;;1049.90;588.80;;;;;;4992519;28;20042;-80
2021/06/30 12:48:17;;;;;;;18.27;5.30;;;1049.60;614.40;;;;;;5003025;28;20105;-82
2021/06/30 12:50:48;;;;;;;18.85;4.85;;;1024.70;614.40;;;;;;5001022;28;20127;-84
2021/06/30 12:53:25;;;;;;;17.08;5.18;;;1024.50;640.00;;;;;;5001925;28;20026;-83
2021/06/30 12:55:56;;;;;;;19.20;5.10;;;1024.40;640.00;;;;;;4995821;28;20050;-84
2021/06/30 12:58:24;;;;;;;19.92;4.72;;;1024.20;614.40;;;;;;4995400;28;20044;-85
2021/06/30 13:00:59;;;;;;;15.60;5.20;;;1024.00;588.80;;;;;;4995920;28;20430;-84
2021/06/30 13:03:26;;;;;;;21.92;5.22;;;1024.00;614.40;;;;;;4995333;28;20036;-82
2021/06/30 13:05:53;;;;;;;16.52;4.93;;;1024.00;614.40;;;;;;4995680;28;20052;-83
2021/06/30 13:08:40;;;;;;;20.75;5.40;;;999.30;640.00;;;;;;4995354;28;20121;-83
2021/06/30 13:11:18;;;;;;;20.70;4.78;;;1024.00;614.40;;;;;;4995681;28;20037;-84
2021/06/30 13:13:55;;;;;;;25.08;6.03;;;999.30;614.40;;;;;;4995821;28;20699;-84
2021/06/30 13:16:21;;;;;;;23.88;5.05;;;999.30;640.00;;;;;;5009855;28;20038;-84
2021/06/30 13:18:51;;;;;;;18.55;5.43;;;1024.00;640.00;;;;;;4989821;28;20048;-85
2021/06/30 13:21:18;;;;;;;18.80;5.10;;;1024.00;640.00;;;;;;4984780;28;20488;-83
2021/06/30 13:30:03;;;;;;;12.23;4.72;;;999.20;665.60;;;;;;5005711;28;20084;-84
2021/06/30 13:35:27;;;;;;;20.60;5.72;;;999.00;665.60;;;;;;5001178;28;20040;-86
2021/06/30 13:38:12;;;;;;;17.67;5.00;;;998.90;691.20;;;;;;4991938;28;20026;-84
2021/06/30 13:40:42;;;;;;;17.73;5.30;;;998.80;691.20;;;;;;4985340;28;20081;-82
2021/06/30 13:43:09;;;;;;;18.15;5.15;;;998.80;716.80;;;;;;5003268;28;20037;-83
2021/06/30 13:45:42;;;;;;;14.15;4.90;;;998.80;691.20;;;;;;4991241;28;20088;-82
2021/06/30 13:48:10;;;;;;;22.58;5.22;;;999.00;665.60;;;;;;4994965;28;20037;-82
2021/06/30 13:50:40;;;;;;;21.35;5.53;;;998.90;665.60;;;;;;4994625;28;20026;-82
2021/06/30 13:53:06;;;;;;;18.67;5.15;;;998.90;665.60;;;;;;4994783;28;20065;-81
2021/06/30 13:55:32;;;;;;;17.77;4.97;;;998.80;665.60;;;;;;5011884;28;20065;-83
2021/06/30 13:58:00;;;;;;;23.13;6.00;;;998.80;665.60;;;;;;5013555;28;20092;-84
2021/06/30 14:00:27;;;;;;;16.45;4.97;;;999.00;691.20;;;;;;4995581;28;20031;-85
2021/06/30 14:02:52;;;;;;;22.17;5.15;;;998.90;691.20;;;;;;4992482;28;20495;-81
2021/06/30 14:05:18;;;;;;;19.27;4.97;;;998.90;665.60;;;;;;4998012;28;20034;-82
2021/06/30 14:07:44;;;;;;;19.10;5.03;;;998.80;665.60;;;;;;5005734;28;20031;-79
2021/06/30 14:10:10;;;;;;;24.35;5.55;;;998.80;691.20;;;;;;4991115;28;20031;-81
2021/06/30 14:12:36;;;;;;;13.48;5.60;;;998.90;691.20;;;;;;4981695;28;20030;-80
2021/06/30 14:15:03;;;;;;;16.77;5.70;;;998.80;691.20;;;;;;5012068;28;20034;-79
2021/06/30 14:17:29;;;;;;;19.40;5.78;;;998.80;691.20;;;;;;5012046;28;20030;-82
2021/06/30 14:19:55;;;;;;;21.60;5.38;;;998.80;716.80;;;;;;5012837;28;20053;-80
2021/06/30 14:22:26;;;;;;;21.77;5.30;;;998.80;691.20;;;;;;5002082;28;20042;-78
2021/06/30 14:24:52;;;;;;;15.82;4.88;;;998.80;691.20;;;;;;4987757;28;20041;-80
2021/06/30 14:27:21;;;;;;;21.17;5.05;;;998.80;691.20;;;;;;5006617;28;20156;-79
2021/06/30 14:29:52;;;;;;;17.42;4.93;;;998.70;716.80;;;;;;5004928;28;20038;-81
2021/06/30 14:32:18;;;;;;;19.15;4.97;;;998.40;716.80;;;;;;4998073;28;20129;-79
2021/06/30 14:34:44;;;;;;;16.05;5.13;;;998.50;716.80;;;;;;5005594;28;20113;-79
2021/06/30 14:37:09;;;;;;;19.45;5.55;;;973.60;691.20;;;;;;5005064;28;20559;-82
2021/06/30 14:39:35;;;;;;;23.52;5.72;;;973.40;716.80;;;;;;4997361;28;20052;-79
2021/06/30 14:42:01;;;;;;;21.02;4.90;;;973.10;716.80;;;;;;4986331;28;20030;-79
2021/06/30 14:44:27;;;;;;;13.75;4.30;;;973.20;716.80;;;;;;5006356;28;20029;-79
2021/06/30 14:46:53;;;;;;;21.90;5.90;;;973.20;691.20;;;;;;4990618;28;20030;-81
2021/06/30 14:49:20;;;;;;;13.60;5.20;;;973.20;691.20;;;;;;5004611;28;20357;-82
2021/06/30 14:51:47;;;;;;;19.25;5.05;;;973.20;691.20;;;;;;4990798;28;20073;-79
2021/06/30 14:54:12;;;;;;;18.45;4.45;;;973.20;691.20;;;;;;4987507;28;20042;-79
2021/06/30 14:56:38;;;;;;;17.75;6.18;;;973.40;691.20;;;;;;5005060;28;20049;-79
2021/06/30 14:59:04;;;;;;;18.98;5.40;;;973.50;716.80;;;;;;5004076;28;20093;-85
2021/06/30 15:01:30;;;;;;;16.40;4.60;;;973.50;716.80;;;;;;5004167;28;20029;-82
2021/06/30 15:03:57;;;;;;;19.73;5.03;;;973.40;716.80;;;;;;5006967;28;20034;-80
2021/06/30 15:06:23;;;;;;;20.23;5.35;;;973.60;665.60;;;;;;5006008;28;20502;-80
2021/06/30 15:08:49;;;;;;;21.50;5.40;;;973.70;691.20;;;;;;4989260;28;20042;-83
2021/06/30 15:11:15;;;;;;;17.60;4.78;;;973.60;716.80;;;;;;4995441;28;20428;-82
2021/06/30 15:13:41;;;;;;;18.23;6.78;;;973.60;665.60;;;;;;5004163;28;20042;-84
2021/06/30 15:16:07;;;;;;;23.08;5.63;;;973.70;716.80;;;;;;5005881;28;20076;-79
2021/06/30 15:18:36;;;;;;;22.33;6.75;;;998.40;716.80;;;;;;5004359;28;20117;-78
2021/06/30 15:21:03;;;;;;;17.98;5.50;;;973.70;691.20;;;;;;5003889;28;20052;-82
2021/06/30 15:23:28;;;;;;;25.35;7.05;;;973.70;691.20;;;;;;4987911;28;20034;-81
2021/06/30 15:25:54;;;;;;;21.17;6.45;;;973.70;716.80;;;;;;5005600;28;20042;-83
2021/06/30 15:28:20;;;;;;;20.08;5.97;;;973.70;691.20;;;;;;4996350;28;20061;-82
2021/06/30 15:30:46;;;;;;;29.27;6.82;;;973.60;691.20;;;;;;4985403;28;20041;-82
2021/06/30 15:33:13;;;;;;;15.30;5.20;;;973.20;716.80;;;;;;5003794;28;20045;-80
2021/06/30 15:35:39;;;;;;;19.55;5.38;;;973.20;716.80;;;;;;4995136;28;20542;-81
2021/06/30 15:38:05;;;;;;;16.08;6.88;;;973.40;691.20;;;;;;4985740;28;20027;-80
2021/06/30 15:40:31;;;;;;;16.90;5.40;;;973.60;691.20;;;;;;5004544;28;20030;-80
2021/06/30 15:42:57;;;;;;;18.30;6.22;;;973.60;716.80;;;;;;4995570;28;20376;-84
2021/06/30 15:45:23;;;;;;;26.92;5.45;;;973.50;716.80;;;;;;5005865;28;20037;-84
2021/06/30 15:47:49;;;;;;;24.77;5.43;;;973.60;716.80;;;;;;4989179;28;20066;-78
2021/06/30 15:50:15;;;;;;;25.40;4.85;;;973.40;716.80;;;;;;5005828;28;20058;-82
2021/06/30 15:52:42;;;;;;;15.77;5.43;;;973.40;716.80;;;;;;5001788;28;20085;-80
2021/06/30 15:55:18;;;;;;;21.92;5.60;;;973.20;716.80;;;;;;5004614;28;20070;-80
2021/06/30 15:57:44;;;;;;;15.50;5.78;;;973.20;716.80;;;;;;5004501;28;20432;-80
2021/06/30 16:00:13;;;;;;;23.98;4.90;;;973.10;716.80;;;;;;4987687;28;20483;-81
2021/06/30 16:02:40;;;;;;;18.05;5.75;;;972.80;716.80;;;;;;4988025;28;20109;-80
2021/06/30 16:05:06;;;;;;;26.73;5.55;;;972.90;742.40;;;;;;4987634;28;20124;-83
2021/06/30 16:07:32;;;;;;;18.40;5.65;;;948.10;716.80;;;;;;5003049;28;20038;-79
2021/06/30 16:09:58;;;;;;;24.75;6.20;;;948.10;716.80;;;;;;4994201;28;20064;-80
2021/06/30 16:12:24;;;;;;;22.65;6.25;;;948.10;716.80;;;;;;5002695;28;20061;-82
2021/06/30 16:14:50;;;;;;;18.45;5.30;;;973.00;742.40;;;;;;4994335;28;20046;-80
2021/06/30 16:17:16;;;;;;;19.67;5.30;;;973.00;742.40;;;;;;5013936;28;20030;-83
2021/06/30 16:19:42;;;;;;;19.15;6.28;;;972.90;742.40;;;;;;4989669;28;20177;-83
2021/06/30 16:22:07;;;;;;;21.98;5.78;;;973.10;742.40;;;;;;5003136;28;20033;-82
2021/06/30 16:24:34;;;;;;;24.95;5.57;;;973.20;742.40;;;;;;4984501;28;20120;-80
2021/06/30 16:26:59;;;;;;;19.58;6.20;;;973.20;716.80;;;;;;4988246;28;20045;-81
2021/06/30 16:29:25;;;;;;;26.52;5.55;;;973.10;716.80;;;;;;4987157;28;20081;-80
2021/06/30 16:31:52;;;;;;;23.90;7.30;;;972.90;716.80;;;;;;4996632;28;20528;-80
2021/06/30 16:34:18;;;;;;;18.10;5.18;;;972.90;742.40;;;;;;4976743;28;20034;-83
2021/06/30 16:36:44;;;;;;;25.92;6.43;;;972.80;742.40;;;;;;5002170;28;20029;-83
2021/06/30 16:39:11;;;;;;;17.05;5.40;;;972.80;716.80;;;;;;4995832;28;20491;-81
2021/06/30 16:41:38;;;;;;;25.90;5.97;;;972.80;742.40;;;;;;4995930;28;20036;-83
2021/06/30 16:44:05;;;;;;;19.45;6.18;;;972.80;742.40;;;;;;4996424;28;20076;-83
2021/06/30 16:46:32;;;;;;;15.05;5.03;;;947.90;742.40;;;;;;4989097;28;20026;-82
2021/06/30 16:48:59;;;;;;;18.73;5.80;;;948.10;716.80;;;;;;5004267;28;20038;-81
2021/06/30 16:51:24;;;;;;;22.95;5.72;;;948.10;742.40;;;;;;4994453;28;20144;-81
2021/06/30 16:53:51;;;;;;;24.20;6.28;;;972.80;768.00;;;;;;5005064;28;20047;-82
2021/06/30 16:56:18;;;;;;;21.77;5.60;;;972.80;742.40;;;;;;5002456;28;20092;-77
2021/06/30 16:58:43;;;;;;;17.25;5.30;;;948.10;768.00;;;;;;4993769;28;20050;-84
2021/06/30 17:01:09;;;;;;;24.70;5.80;;;948.10;793.60;;;;;;4976683;28;20035;-88
2021/06/30 17:03:35;;;;;;;23.13;5.38;;;973.10;768.00;;;;;;4978616;28;20057;-85
2021/06/30 17:06:01;;;;;;;22.40;6.07;;;973.30;716.80;;;;;;4996132;28;20065;-82
2021/06/30 17:08:26;;;;;;;21.25;5.40;;;973.20;742.40;;;;;;5013109;28;20025;-83
2021/06/30 17:10:54;;;;;;;15.18;5.10;;;948.10;793.60;;;;;;5011809;28;20641;-82
2021/06/30 17:13:20;;;;;;;20.80;5.78;;;973.20;742.40;;;;;;4995488;28;20026;-84
2021/06/30 17:15:46;;;;;;;16.88;4.85;;;973.50;716.80;;;;;;5012183;28;20585;-83
2021/06/30 17:18:11;;;;;;;23.50;5.28;;;973.30;716.80;;;;;;5011448;28;20041;-82
2021/06/30 17:20:37;;;;;;;18.25;4.72;;;973.40;716.80;;;;;;4995676;28;20052;-84
2021/06/30 17:23:03;;;;;;;12.95;4.43;;;973.30;742.40;;;;;;5011755;28;20041;-78
2021/06/30 17:25:28;;;;;;;19.65;5.93;;;973.20;742.40;;;;;;5012684;28;20034;-82
2021/06/30 17:27:54;;;;;;;23.60;5.65;;;972.90;819.20;;;;;;4995214;28;20065;-81
2021/06/30 17:30:22;;;;;;;28.52;5.75;;;947.90;844.80;;;;;;5012840;28;20195;-77
2021/06/30 17:32:53;;;;;;;24.95;6.20;;;947.90;870.40;;;;;;5012202;28;20053;-78
2021/06/30 17:35:20;;;;;;;23.23;5.72;;;947.30;896.00;;;;;;4994801;28;20030;-82
2021/06/30 17:37:46;;;;;;;19.30;5.32;;;922.50;896.00;;;;;;5012703;28;20034;-82
2021/06/30 17:40:13;;;;;;;17.17;6.13;;;922.30;896.00;;;;;;5011561;28;20804;-83
2021/06/30 17:42:40;;;;;;;22.90;5.15;;;922.10;921.60;;;;;;4994774;28;20125;-83
2021/06/30 17:45:07;;;;;;;31.90;5.82;;;922.00;896.00;;;;;;4994013;28;20033;-82
2021/06/30 17:47:33;;;;;;;26.15;5.57;;;922.10;896.00;;;;;;4994131;28;20483;-83
2021/06/30 17:49:59;;;;;;;23.50;5.03;;;921.90;896.00;;;;;;4994934;28;20033;-83
2021/06/30 17:52:25;;;;;;;25.60;6.18;;;921.90;921.60;;;;;;5011160;28;20041;-82
2021/06/30 17:54:51;;;;;;;24.70;5.47;;;921.90;921.60;;;;;;5010825;28;20037;-83
2021/06/30 17:57:20;;;;;;;25.48;5.82;;;922.40;870.40;;;;;;4994166;28;20046;-83
2021/06/30 17:59:47;;;;;;;31.45;5.97;;;922.30;896.00;;;;;;5012962;28;20376;-85
2021/06/30 18:02:13;;;;;;;25.95;6.97;;;922.30;870.40;;;;;;4995041;28;20490;-82
2021/06/30 18:04:39;;;;;;;34.03;6.43;;;947.20;870.40;;;;;;5012850;28;20038;-86
2021/06/30 18:07:05;;;;;;;28.13;6.18;;;922.30;896.00;;;;;;4994872;28;20179;-81
2021/06/30 18:09:31;;;;;;;30.90;6.90;;;922.00;896.00;;;;;;5011357;28;20045;-83
2021/06/30 18:11:57;;;;;;;24.02;6.93;;;896.90;896.00;;;;;;5011532;28;20030;-85
2021/06/30 18:14:24;;;;;;;27.92;7.88;;;896.90;921.60;;;;;;5011797;28;20049;-86